Terminal Aerodrome Forecast
Issued by NWS

Home | Current Version | Previous Version | Text Only | Print | Product List | Glossary On
Versions: 1 2 3 4 5 6 7 8 9 10 11 12 13
506
FTUS42 KGSP 292333
TAFAND
TAF
KAND 292333Z 3000/3024 02005KT P6SM VCSH BKN150
     FM300300 36003KT P6SM BKN090
     FM300800 34003KT P6SM SCT200=

USA.gov is the U.S. government's official web portal to all federal, state and local government web resources and services.